sensor_id;sensor_type;location;lat;lon;timestamp;P1;durP1;ratioP1;P2;durP2;ratioP2
51636;SDS011;37713;53.254;6.460;2024-02-16T00:00:18;11.60;;;4.75;;
51636;SDS011;37713;53.254;6.460;2024-02-16T00:02:44;12.25;;;5.47;;
51636;SDS011;37713;53.254;6.460;2024-02-16T00:05:11;9.25;;;4.95;;
51636;SDS011;37713;53.254;6.460;2024-02-16T00:07:37;12.05;;;5.20;;
51636;SDS011;37713;53.254;6.460;2024-02-16T00:10:04;10.88;;;4.72;;
51636;SDS011;37713;53.254;6.460;2024-02-16T00:12:30;11.15;;;4.70;;
51636;SDS011;37713;53.254;6.460;2024-02-16T00:14:58;10.00;;;4.50;;
51636;SDS011;37713;53.254;6.460;2024-02-16T00:17:24;10.48;;;4.47;;
51636;SDS011;37713;53.254;6.460;2024-02-16T00:19:53;10.52;;;5.03;;
51636;SDS011;37713;53.254;6.460;2024-02-16T00:22:20;9.95;;;4.55;;
51636;SDS011;37713;53.254;6.460;2024-02-16T00:24:46;11.20;;;5.32;;
51636;SDS011;37713;53.254;6.460;2024-02-16T00:27:13;10.43;;;4.88;;
51636;SDS011;37713;53.254;6.460;2024-02-16T00:29:39;8.43;;;4.13;;
51636;SDS011;37713;53.254;6.460;2024-02-16T00:32:05;9.50;;;4.85;;
51636;SDS011;37713;53.254;6.460;2024-02-16T00:34:33;10.38;;;4.43;;
51636;SDS011;37713;53.254;6.460;2024-02-16T00:36:59;7.70;;;4.30;;
51636;SDS011;37713;53.254;6.460;2024-02-16T00:39:25;9.32;;;4.38;;
51636;SDS011;37713;53.254;6.460;2024-02-16T00:41:51;9.82;;;4.50;;
51636;SDS011;37713;53.254;6.460;2024-02-16T00:44:17;10.68;;;4.22;;
51636;SDS011;37713;53.254;6.460;2024-02-16T00:46:43;11.93;;;4.53;;
51636;SDS011;37713;53.254;6.460;2024-02-16T00:49:09;11.27;;;4.22;;
51636;SDS011;37713;53.254;6.460;2024-02-16T00:51:39;15.63;;;4.80;;
51636;SDS011;37713;53.254;6.460;2024-02-16T00:54:05;10.43;;;4.72;;
51636;SDS011;37713;53.254;6.460;2024-02-16T00:56:32;9.52;;;4.57;;
51636;SDS011;37713;53.254;6.460;2024-02-16T00:58:58;9.85;;;4.30;;
51636;SDS011;37713;53.254;6.460;2024-02-16T01:01:24;10.15;;;4.47;;
51636;SDS011;37713;53.254;6.460;2024-02-16T01:03:51;9.73;;;4.07;;
51636;SDS011;37713;53.254;6.460;2024-02-16T01:06:18;15.23;;;4.63;;
51636;SDS011;37713;53.254;6.460;2024-02-16T01:08:44;9.50;;;4.75;;
51636;SDS011;37713;53.254;6.460;2024-02-16T01:11:10;9.70;;;4.10;;
51636;SDS011;37713;53.254;6.460;2024-02-16T01:13:36;12.50;;;4.57;;
51636;SDS011;37713;53.254;6.460;2024-02-16T01:16:02;11.10;;;4.10;;
51636;SDS011;37713;53.254;6.460;2024-02-16T01:18:28;9.35;;;3.88;;
51636;SDS011;37713;53.254;6.460;2024-02-16T01:20:55;9.90;;;4.38;;
51636;SDS011;37713;53.254;6.460;2024-02-16T01:23:21;8.43;;;4.32;;
51636;SDS011;37713;53.254;6.460;2024-02-16T01:25:46;10.88;;;4.50;;
51636;SDS011;37713;53.254;6.460;2024-02-16T01:28:13;11.20;;;4.47;;
51636;SDS011;37713;53.254;6.460;2024-02-16T01:30:40;9.68;;;4.50;;
51636;SDS011;37713;53.254;6.460;2024-02-16T01:33:06;10.07;;;4.38;;
51636;SDS011;37713;53.254;6.460;2024-02-16T01:35:32;12.20;;;4.00;;
51636;SDS011;37713;53.254;6.460;2024-02-16T01:37:59;10.45;;;4.10;;
51636;SDS011;37713;53.254;6.460;2024-02-16T01:40:25;10.52;;;4.47;;
51636;SDS011;37713;53.254;6.460;2024-02-16T01:42:51;10.70;;;4.80;;
51636;SDS011;37713;53.254;6.460;2024-02-16T01:45:20;10.07;;;4.17;;
51636;SDS011;37713;53.254;6.460;2024-02-16T01:47:47;9.32;;;4.20;;
51636;SDS011;37713;53.254;6.460;2024-02-16T01:50:15;8.88;;;4.15;;
51636;SDS011;37713;53.254;6.460;2024-02-16T01:52:42;9.60;;;4.30;;
51636;SDS011;37713;53.254;6.460;2024-02-16T01:55:09;7.60;;;3.95;;
51636;SDS011;37713;53.254;6.460;2024-02-16T01:57:36;9.75;;;4.20;;
51636;SDS011;37713;53.254;6.460;2024-02-16T02:00:04;8.98;;;4.30;;
51636;SDS011;37713;53.254;6.460;2024-02-16T02:02:33;9.60;;;4.03;;
51636;SDS011;37713;53.254;6.460;2024-02-16T02:05:00;8.82;;;4.07;;
51636;SDS011;37713;53.254;6.460;2024-02-16T02:07:26;10.60;;;4.10;;
51636;SDS011;37713;53.254;6.460;2024-02-16T02:09:52;11.02;;;4.10;;
51636;SDS011;37713;53.254;6.460;2024-02-16T02:12:19;9.80;;;3.78;;
51636;SDS011;37713;53.254;6.460;2024-02-16T02:14:44;8.70;;;3.97;;
51636;SDS011;37713;53.254;6.460;2024-02-16T02:17:11;12.65;;;4.05;;
51636;SDS011;37713;53.254;6.460;2024-02-16T02:19:38;12.43;;;4.05;;
51636;SDS011;37713;53.254;6.460;2024-02-16T02:22:04;8.45;;;3.50;;
51636;SDS011;37713;53.254;6.460;2024-02-16T02:24:33;10.63;;;4.03;;
51636;SDS011;37713;53.254;6.460;2024-02-16T02:26:59;11.18;;;4.30;;
51636;SDS011;37713;53.254;6.460;2024-02-16T02:29:25;10.60;;;3.95;;
51636;SDS011;37713;53.254;6.460;2024-02-16T02:31:51;14.93;;;4.85;;
51636;SDS011;37713;53.254;6.460;2024-02-16T02:34:16;10.50;;;4.00;;
51636;SDS011;37713;53.254;6.460;2024-02-16T02:36:42;10.80;;;4.32;;
51636;SDS011;37713;53.254;6.460;2024-02-16T02:39:09;11.35;;;4.25;;
51636;SDS011;37713;53.254;6.460;2024-02-16T02:41:35;13.68;;;4.10;;
51636;SDS011;37713;53.254;6.460;2024-02-16T02:44:04;9.35;;;3.95;;
51636;SDS011;37713;53.254;6.460;2024-02-16T02:46:30;9.27;;;4.10;;
51636;SDS011;37713;53.254;6.460;2024-02-16T02:48:56;10.13;;;4.03;;
51636;SDS011;37713;53.254;6.460;2024-02-16T02:51:22;8.50;;;4.13;;
51636;SDS011;37713;53.254;6.460;2024-02-16T02:53:48;9.45;;;4.13;;
51636;SDS011;37713;53.254;6.460;2024-02-16T02:56:13;11.90;;;3.88;;
51636;SDS011;37713;53.254;6.460;2024-02-16T02:58:39;7.47;;;3.85;;
51636;SDS011;37713;53.254;6.460;2024-02-16T03:01:05;8.70;;;4.18;;
51636;SDS011;37713;53.254;6.460;2024-02-16T03:03:33;10.10;;;4.97;;
51636;SDS011;37713;53.254;6.460;2024-02-16T03:05:59;12.10;;;3.80;;
51636;SDS011;37713;53.254;6.460;2024-02-16T03:08:25;10.65;;;4.13;;
51636;SDS011;37713;53.254;6.460;2024-02-16T03:10:51;10.93;;;4.22;;
51636;SDS011;37713;53.254;6.460;2024-02-16T03:13:17;8.65;;;3.78;;
51636;SDS011;37713;53.254;6.460;2024-02-16T03:15:45;11.15;;;4.47;;
51636;SDS011;37713;53.254;6.460;2024-02-16T03:18:11;9.63;;;4.50;;
51636;SDS011;37713;53.254;6.460;2024-02-16T03:20:37;8.48;;;4.05;;
51636;SDS011;37713;53.254;6.460;2024-02-16T03:23:03;8.82;;;4.20;;
51636;SDS011;37713;53.254;6.460;2024-02-16T03:25:29;10.40;;;4.15;;
51636;SDS011;37713;53.254;6.460;2024-02-16T03:27:55;9.68;;;4.18;;
51636;SDS011;37713;53.254;6.460;2024-02-16T03:30:21;8.48;;;3.75;;
51636;SDS011;37713;53.254;6.460;2024-02-16T03:32:50;10.52;;;4.40;;
51636;SDS011;37713;53.254;6.460;2024-02-16T03:35:17;9.68;;;3.60;;
51636;SDS011;37713;53.254;6.460;2024-02-16T03:37:43;12.23;;;4.45;;
51636;SDS011;37713;53.254;6.460;2024-02-16T03:40:10;10.63;;;4.20;;
51636;SDS011;37713;53.254;6.460;2024-02-16T03:42:38;9.35;;;4.35;;
51636;SDS011;37713;53.254;6.460;2024-02-16T03:45:06;9.23;;;4.00;;
51636;SDS011;37713;53.254;6.460;2024-02-16T03:47:32;9.43;;;4.20;;
51636;SDS011;37713;53.254;6.460;2024-02-16T03:49:58;9.75;;;4.18;;
51636;SDS011;37713;53.254;6.460;2024-02-16T03:52:24;8.68;;;3.92;;
51636;SDS011;37713;53.254;6.460;2024-02-16T03:54:50;9.60;;;3.88;;
51636;SDS011;37713;53.254;6.460;2024-02-16T03:57:16;7.88;;;3.72;;
51636;SDS011;37713;53.254;6.460;2024-02-16T03:59:42;9.07;;;4.07;;
51636;SDS011;37713;53.254;6.460;2024-02-16T04:02:09;11.63;;;4.30;;
51636;SDS011;37713;53.254;6.460;2024-02-16T04:04:35;9.88;;;4.40;;
51636;SDS011;37713;53.254;6.460;2024-02-16T04:07:01;8.20;;;4.60;;
51636;SDS011;37713;53.254;6.460;2024-02-16T04:09:27;10.15;;;4.18;;
51636;SDS011;37713;53.254;6.460;2024-02-16T04:11:53;10.75;;;4.63;;
51636;SDS011;37713;53.254;6.460;2024-02-16T04:14:19;8.63;;;4.18;;
51636;SDS011;37713;53.254;6.460;2024-02-16T04:16:45;11.35;;;4.75;;
51636;SDS011;37713;53.254;6.460;2024-02-16T04:19:10;9.75;;;4.35;;
51636;SDS011;37713;53.254;6.460;2024-02-16T04:21:36;13.45;;;5.13;;
51636;SDS011;37713;53.254;6.460;2024-02-16T04:24:02;10.77;;;4.45;;
51636;SDS011;37713;53.254;6.460;2024-02-16T04:26:28;12.52;;;4.22;;
51636;SDS011;37713;53.254;6.460;2024-02-16T04:28:54;11.05;;;4.70;;
51636;SDS011;37713;53.254;6.460;2024-02-16T04:31:20;8.48;;;4.28;;
51636;SDS011;37713;53.254;6.460;2024-02-16T04:33:45;10.95;;;4.10;;
51636;SDS011;37713;53.254;6.460;2024-02-16T04:36:11;15.68;;;4.47;;
51636;SDS011;37713;53.254;6.460;2024-02-16T04:38:37;9.82;;;4.10;;
51636;SDS011;37713;53.254;6.460;2024-02-16T04:41:06;8.95;;;4.05;;
51636;SDS011;37713;53.254;6.460;2024-02-16T04:43:33;11.27;;;4.35;;
51636;SDS011;37713;53.254;6.460;2024-02-16T04:46:00;8.55;;;4.70;;
51636;SDS011;37713;53.254;6.460;2024-02-16T04:48:25;9.20;;;4.68;;
51636;SDS011;37713;53.254;6.460;2024-02-16T04:50:51;10.52;;;3.92;;
51636;SDS011;37713;53.254;6.460;2024-02-16T04:53:17;10.30;;;4.35;;
51636;SDS011;37713;53.254;6.460;2024-02-16T04:55:43;11.90;;;5.18;;
51636;SDS011;37713;53.254;6.460;2024-02-16T04:58:09;9.10;;;4.30;;
51636;SDS011;37713;53.254;6.460;2024-02-16T05:00:38;9.68;;;4.53;;
51636;SDS011;37713;53.254;6.460;2024-02-16T05:03:04;9.15;;;4.15;;
51636;SDS011;37713;53.254;6.460;2024-02-16T05:05:30;10.88;;;4.57;;
51636;SDS011;37713;53.254;6.460;2024-02-16T05:07:56;10.32;;;4.28;;
51636;SDS011;37713;53.254;6.460;2024-02-16T05:10:22;10.38;;;4.10;;
51636;SDS011;37713;53.254;6.460;2024-02-16T05:12:48;10.57;;;4.20;;
51636;SDS011;37713;53.254;6.460;2024-02-16T05:15:14;11.02;;;4.50;;
51636;SDS011;37713;53.254;6.460;2024-02-16T05:17:40;8.50;;;4.53;;
51636;SDS011;37713;53.254;6.460;2024-02-16T05:20:12;13.02;;;5.10;;
51636;SDS011;37713;53.254;6.460;2024-02-16T05:22:41;10.15;;;4.20;;
51636;SDS011;37713;53.254;6.460;2024-02-16T05:25:14;13.85;;;7.78;;
51636;SDS011;37713;53.254;6.460;2024-02-16T05:27:42;8.80;;;4.22;;
51636;SDS011;37713;53.254;6.460;2024-02-16T05:30:09;10.57;;;4.15;;
51636;SDS011;37713;53.254;6.460;2024-02-16T05:32:38;9.27;;;3.70;;
51636;SDS011;37713;53.254;6.460;2024-02-16T05:35:04;10.65;;;4.00;;
51636;SDS011;37713;53.254;6.460;2024-02-16T05:37:46;9.00;;;3.80;;
51636;SDS011;37713;53.254;6.460;2024-02-16T05:40:21;11.13;;;4.10;;
51636;SDS011;37713;53.254;6.460;2024-02-16T05:42:50;11.35;;;4.03;;
51636;SDS011;37713;53.254;6.460;2024-02-16T05:45:16;8.73;;;4.28;;
51636;SDS011;37713;53.254;6.460;2024-02-16T05:47:45;9.88;;;3.65;;
51636;SDS011;37713;53.254;6.460;2024-02-16T05:50:11;7.90;;;4.10;;
51636;SDS011;37713;53.254;6.460;2024-02-16T05:52:38;7.43;;;3.53;;
51636;SDS011;37713;53.254;6.460;2024-02-16T05:55:08;9.27;;;3.95;;
51636;SDS011;37713;53.254;6.460;2024-02-16T06:00:00;10.52;;;3.60;;
51636;SDS011;37713;53.254;6.460;2024-02-16T06:02:29;7.85;;;3.50;;
51636;SDS011;37713;53.254;6.460;2024-02-16T06:04:55;8.73;;;4.10;;
51636;SDS011;37713;53.254;6.460;2024-02-16T06:07:22;9.90;;;4.20;;
51636;SDS011;37713;53.254;6.460;2024-02-16T06:09:48;7.63;;;4.53;;
51636;SDS011;37713;53.254;6.460;2024-02-16T06:12:14;9.57;;;4.05;;
51636;SDS011;37713;53.254;6.460;2024-02-16T06:14:41;10.57;;;4.22;;
51636;SDS011;37713;53.254;6.460;2024-02-16T06:17:07;8.35;;;3.72;;
51636;SDS011;37713;53.254;6.460;2024-02-16T06:19:34;9.40;;;4.20;;
51636;SDS011;37713;53.254;6.460;2024-02-16T06:22:02;9.27;;;4.07;;
51636;SDS011;37713;53.254;6.460;2024-02-16T06:24:28;10.65;;;4.13;;
51636;SDS011;37713;53.254;6.460;2024-02-16T06:26:54;9.02;;;4.30;;
51636;SDS011;37713;53.254;6.460;2024-02-16T06:29:20;9.32;;;3.58;;
51636;SDS011;37713;53.254;6.460;2024-02-16T06:31:46;8.75;;;4.00;;
51636;SDS011;37713;53.254;6.460;2024-02-16T06:34:15;9.83;;;3.90;;
51636;SDS011;37713;53.254;6.460;2024-02-16T06:36:41;8.35;;;4.10;;
51636;SDS011;37713;53.254;6.460;2024-02-16T06:39:07;7.45;;;3.65;;
51636;SDS011;37713;53.254;6.460;2024-02-16T06:41:35;8.30;;;4.00;;
51636;SDS011;37713;53.254;6.460;2024-02-16T06:44:03;9.82;;;4.00;;
51636;SDS011;37713;53.254;6.460;2024-02-16T06:46:30;8.02;;;3.80;;
51636;SDS011;37713;53.254;6.460;2024-02-16T06:48:56;7.95;;;3.72;;
51636;SDS011;37713;53.254;6.460;2024-02-16T06:51:22;10.43;;;3.80;;
51636;SDS011;37713;53.254;6.460;2024-02-16T06:53:49;11.23;;;4.22;;
51636;SDS011;37713;53.254;6.460;2024-02-16T06:56:14;9.07;;;3.92;;
51636;SDS011;37713;53.254;6.460;2024-02-16T06:58:40;7.47;;;3.95;;
51636;SDS011;37713;53.254;6.460;2024-02-16T07:01:06;10.93;;;4.30;;
51636;SDS011;37713;53.254;6.460;2024-02-16T07:03:34;7.38;;;3.90;;
51636;SDS011;37713;53.254;6.460;2024-02-16T07:06:02;11.95;;;4.57;;
51636;SDS011;37713;53.254;6.460;2024-02-16T07:08:28;7.90;;;3.70;;
51636;SDS011;37713;53.254;6.460;2024-02-16T07:10:54;8.63;;;4.10;;
51636;SDS011;37713;53.254;6.460;2024-02-16T07:13:22;9.15;;;4.32;;
51636;SDS011;37713;53.254;6.460;2024-02-16T07:15:47;9.35;;;4.25;;
51636;SDS011;37713;53.254;6.460;2024-02-16T07:18:14;10.10;;;3.90;;
51636;SDS011;37713;53.254;6.460;2024-02-16T07:20:40;9.00;;;3.60;;
51636;SDS011;37713;53.254;6.460;2024-02-16T07:23:07;10.43;;;4.00;;
51636;SDS011;37713;53.254;6.460;2024-02-16T07:25:34;7.78;;;4.03;;
51636;SDS011;37713;53.254;6.460;2024-02-16T07:28:00;10.60;;;4.22;;
51636;SDS011;37713;53.254;6.460;2024-02-16T07:30:27;9.00;;;4.38;;
51636;SDS011;37713;53.254;6.460;2024-02-16T07:32:53;10.40;;;4.65;;
51636;SDS011;37713;53.254;6.460;2024-02-16T07:35:19;10.70;;;4.18;;
51636;SDS011;37713;53.254;6.460;2024-02-16T07:37:44;13.80;;;4.05;;
51636;SDS011;37713;53.254;6.460;2024-02-16T07:40:10;11.82;;;4.43;;
51636;SDS011;37713;53.254;6.460;2024-02-16T07:42:39;7.85;;;4.20;;
51636;SDS011;37713;53.254;6.460;2024-02-16T07:45:09;7.50;;;4.10;;
51636;SDS011;37713;53.254;6.460;2024-02-16T07:47:40;8.68;;;3.90;;
51636;SDS011;37713;53.254;6.460;2024-02-16T07:50:07;9.43;;;4.43;;
51636;SDS011;37713;53.254;6.460;2024-02-16T07:52:33;7.93;;;4.28;;
51636;SDS011;37713;53.254;6.460;2024-02-16T07:54:59;11.00;;;4.45;;
51636;SDS011;37713;53.254;6.460;2024-02-16T07:57:24;8.52;;;4.30;;
51636;SDS011;37713;53.254;6.460;2024-02-16T07:59:51;8.52;;;4.25;;
51636;SDS011;37713;53.254;6.460;2024-02-16T08:02:17;10.75;;;4.68;;
51636;SDS011;37713;53.254;6.460;2024-02-16T08:04:46;12.13;;;4.75;;
51636;SDS011;37713;53.254;6.460;2024-02-16T08:07:13;8.98;;;4.22;;
51636;SDS011;37713;53.254;6.460;2024-02-16T08:09:39;7.68;;;4.30;;
51636;SDS011;37713;53.254;6.460;2024-02-16T08:12:05;9.27;;;4.30;;
51636;SDS011;37713;53.254;6.460;2024-02-16T08:14:35;9.02;;;4.28;;
51636;SDS011;37713;53.254;6.460;2024-02-16T08:17:01;10.33;;;4.30;;
51636;SDS011;37713;53.254;6.460;2024-02-16T08:19:33;7.97;;;4.47;;
51636;SDS011;37713;53.254;6.460;2024-02-16T08:22:00;8.07;;;4.20;;
51636;SDS011;37713;53.254;6.460;2024-02-16T08:24:27;9.05;;;4.43;;
51636;SDS011;37713;53.254;6.460;2024-02-16T08:26:52;9.70;;;4.28;;
51636;SDS011;37713;53.254;6.460;2024-02-16T08:29:19;9.68;;;4.90;;
51636;SDS011;37713;53.254;6.460;2024-02-16T08:31:47;8.73;;;4.07;;
51636;SDS011;37713;53.254;6.460;2024-02-16T08:34:14;6.80;;;4.07;;
51636;SDS011;37713;53.254;6.460;2024-02-16T08:36:43;10.88;;;4.70;;
51636;SDS011;37713;53.254;6.460;2024-02-16T08:39:09;8.68;;;4.57;;
51636;SDS011;37713;53.254;6.460;2024-02-16T08:41:39;11.57;;;4.73;;
51636;SDS011;37713;53.254;6.460;2024-02-16T08:44:05;10.50;;;5.05;;
51636;SDS011;37713;53.254;6.460;2024-02-16T08:46:35;10.52;;;5.07;;
51636;SDS011;37713;53.254;6.460;2024-02-16T08:49:01;10.82;;;4.57;;
51636;SDS011;37713;53.254;6.460;2024-02-16T08:51:28;9.95;;;4.53;;
51636;SDS011;37713;53.254;6.460;2024-02-16T08:53:54;9.45;;;4.82;;
51636;SDS011;37713;53.254;6.460;2024-02-16T08:56:20;12.02;;;5.00;;
51636;SDS011;37713;53.254;6.460;2024-02-16T08:58:46;7.65;;;4.68;;
51636;SDS011;37713;53.254;6.460;2024-02-16T09:01:12;7.70;;;4.65;;
51636;SDS011;37713;53.254;6.460;2024-02-16T09:03:38;9.02;;;5.35;;
51636;SDS011;37713;53.254;6.460;2024-02-16T09:06:05;10.77;;;5.00;;
51636;SDS011;37713;53.254;6.460;2024-02-16T09:08:34;11.23;;;5.53;;
51636;SDS011;37713;53.254;6.460;2024-02-16T09:11:03;12.98;;;5.85;;
51636;SDS011;37713;53.254;6.460;2024-02-16T09:13:34;9.05;;;5.05;;
51636;SDS011;37713;53.254;6.460;2024-02-16T09:16:01;11.95;;;5.53;;
51636;SDS011;37713;53.254;6.460;2024-02-16T09:18:28;11.27;;;5.80;;
51636;SDS011;37713;53.254;6.460;2024-02-16T09:20:54;12.18;;;5.28;;
51636;SDS011;37713;53.254;6.460;2024-02-16T09:23:21;9.68;;;4.95;;
51636;SDS011;37713;53.254;6.460;2024-02-16T09:25:46;12.48;;;5.85;;
51636;SDS011;37713;53.254;6.460;2024-02-16T09:28:14;11.60;;;5.95;;
51636;SDS011;37713;53.254;6.460;2024-02-16T09:30:40;12.98;;;5.80;;
51636;SDS011;37713;53.254;6.460;2024-02-16T09:33:05;10.10;;;5.47;;
51636;SDS011;37713;53.254;6.460;2024-02-16T09:35:32;9.45;;;5.30;;
51636;SDS011;37713;53.254;6.460;2024-02-16T09:37:58;9.88;;;5.68;;
51636;SDS011;37713;53.254;6.460;2024-02-16T09:40:25;11.90;;;5.50;;
51636;SDS011;37713;53.254;6.460;2024-02-16T09:42:51;11.95;;;6.28;;
51636;SDS011;37713;53.254;6.460;2024-02-16T09:45:17;11.75;;;6.03;;
51636;SDS011;37713;53.254;6.460;2024-02-16T09:47:44;13.38;;;6.60;;
51636;SDS011;37713;53.254;6.460;2024-02-16T09:50:12;10.88;;;6.28;;
51636;SDS011;37713;53.254;6.460;2024-02-16T09:52:38;10.45;;;6.00;;
51636;SDS011;37713;53.254;6.460;2024-02-16T09:55:07;10.00;;;6.63;;
51636;SDS011;37713;53.254;6.460;2024-02-16T09:57:40;12.10;;;6.40;;
51636;SDS011;37713;53.254;6.460;2024-02-16T10:00:07;12.00;;;6.32;;
51636;SDS011;37713;53.254;6.460;2024-02-16T10:02:44;11.70;;;6.10;;
51636;SDS011;37713;53.254;6.460;2024-02-16T10:05:14;13.27;;;7.00;;
51636;SDS011;37713;53.254;6.460;2024-02-16T10:07:42;13.65;;;6.45;;
51636;SDS011;37713;53.254;6.460;2024-02-16T10:10:27;11.40;;;6.03;;
51636;SDS011;37713;53.254;6.460;2024-02-16T10:13:02;10.00;;;6.00;;
51636;SDS011;37713;53.254;6.460;2024-02-16T10:15:32;11.00;;;6.28;;
51636;SDS011;37713;53.254;6.460;2024-02-16T10:17:58;12.00;;;6.55;;
51636;SDS011;37713;53.254;6.460;2024-02-16T10:20:25;10.68;;;6.40;;
51636;SDS011;37713;53.254;6.460;2024-02-16T10:23:01;15.00;;;6.78;;
51636;SDS011;37713;53.254;6.460;2024-02-16T10:25:32;11.32;;;7.05;;
51636;SDS011;37713;53.254;6.460;2024-02-16T10:28:05;12.15;;;6.65;;
51636;SDS011;37713;53.254;6.460;2024-02-16T10:30:37;14.13;;;6.95;;
51636;SDS011;37713;53.254;6.460;2024-02-16T10:33:06;13.90;;;7.25;;
51636;SDS011;37713;53.254;6.460;2024-02-16T10:35:36;12.53;;;7.30;;
51636;SDS011;37713;53.254;6.460;2024-02-16T10:38:03;13.80;;;7.70;;
51636;SDS011;37713;53.254;6.460;2024-02-16T10:40:38;14.73;;;7.18;;
51636;SDS011;37713;53.254;6.460;2024-02-16T10:43:06;14.50;;;7.97;;
51636;SDS011;37713;53.254;6.460;2024-02-16T10:45:33;14.82;;;7.97;;
51636;SDS011;37713;53.254;6.460;2024-02-16T10:48:01;15.45;;;7.93;;
51636;SDS011;37713;53.254;6.460;2024-02-16T10:50:27;15.20;;;8.25;;
51636;SDS011;37713;53.254;6.460;2024-02-16T10:52:53;16.33;;;8.55;;
51636;SDS011;37713;53.254;6.460;2024-02-16T10:55:22;17.10;;;9.35;;
51636;SDS011;37713;53.254;6.460;2024-02-16T10:57:49;16.35;;;8.60;;
51636;SDS011;37713;53.254;6.460;2024-02-16T11:00:19;17.33;;;8.52;;
51636;SDS011;37713;53.254;6.460;2024-02-16T11:02:52;18.48;;;9.85;;
51636;SDS011;37713;53.254;6.460;2024-02-16T11:05:31;21.60;;;9.68;;
51636;SDS011;37713;53.254;6.460;2024-02-16T11:08:01;19.17;;;10.60;;
51636;SDS011;37713;53.254;6.460;2024-02-16T11:13:03;26.85;;;11.30;;
51636;SDS011;37713;53.254;6.460;2024-02-16T11:15:33;26.05;;;11.93;;
51636;SDS011;37713;53.254;6.460;2024-02-16T11:18:03;25.83;;;11.77;;
51636;SDS011;37713;53.254;6.460;2024-02-16T11:23:06;28.38;;;11.05;;
51636;SDS011;37713;53.254;6.460;2024-02-16T11:25:34;25.45;;;12.45;;
51636;SDS011;37713;53.254;6.460;2024-02-16T11:28:01;23.45;;;11.77;;
51636;SDS011;37713;53.254;6.460;2024-02-16T11:30:31;22.23;;;11.23;;
51636;SDS011;37713;53.254;6.460;2024-02-16T11:32:59;21.00;;;11.73;;
51636;SDS011;37713;53.254;6.460;2024-02-16T11:35:25;23.98;;;11.55;;
51636;SDS011;37713;53.254;6.460;2024-02-16T11:37:51;21.58;;;10.77;;
51636;SDS011;37713;53.254;6.460;2024-02-16T11:40:17;20.63;;;10.38;;
51636;SDS011;37713;53.254;6.460;2024-02-16T11:42:44;19.52;;;10.05;;
51636;SDS011;37713;53.254;6.460;2024-02-16T11:45:12;22.30;;;9.95;;
51636;SDS011;37713;53.254;6.460;2024-02-16T11:47:38;21.67;;;9.75;;
51636;SDS011;37713;53.254;6.460;2024-02-16T11:50:04;20.05;;;10.10;;
51636;SDS011;37713;53.254;6.460;2024-02-16T11:52:34;20.17;;;9.80;;
51636;SDS011;37713;53.254;6.460;2024-02-16T11:55:00;19.33;;;9.30;;
51636;SDS011;37713;53.254;6.460;2024-02-16T11:57:26;17.35;;;9.35;;
51636;SDS011;37713;53.254;6.460;2024-02-16T11:59:53;17.40;;;8.60;;
51636;SDS011;37713;53.254;6.460;2024-02-16T12:02:19;16.27;;;8.48;;
51636;SDS011;37713;53.254;6.460;2024-02-16T12:07:22;15.68;;;8.23;;
51636;SDS011;37713;53.254;6.460;2024-02-16T12:09:58;15.55;;;8.38;;
51636;SDS011;37713;53.254;6.460;2024-02-16T12:12:25;17.23;;;8.18;;
51636;SDS011;37713;53.254;6.460;2024-02-16T12:14:52;16.73;;;8.63;;
51636;SDS011;37713;53.254;6.460;2024-02-16T12:17:19;16.25;;;7.60;;
51636;SDS011;37713;53.254;6.460;2024-02-16T12:19:45;16.38;;;7.97;;
51636;SDS011;37713;53.254;6.460;2024-02-16T12:22:18;16.27;;;7.50;;
51636;SDS011;37713;53.254;6.460;2024-02-16T12:24:45;20.67;;;7.70;;
51636;SDS011;37713;53.254;6.460;2024-02-16T12:27:12;13.40;;;6.97;;
51636;SDS011;37713;53.254;6.460;2024-02-16T12:29:38;12.57;;;6.32;;
51636;SDS011;37713;53.254;6.460;2024-02-16T12:32:05;16.50;;;7.45;;
51636;SDS011;37713;53.254;6.460;2024-02-16T12:34:31;12.80;;;6.07;;
51636;SDS011;37713;53.254;6.460;2024-02-16T12:36:57;14.43;;;5.85;;
51636;SDS011;37713;53.254;6.460;2024-02-16T12:39:22;12.13;;;6.00;;
51636;SDS011;37713;53.254;6.460;2024-02-16T12:41:48;11.88;;;5.60;;
51636;SDS011;37713;53.254;6.460;2024-02-16T12:44:14;16.05;;;6.25;;
51636;SDS011;37713;53.254;6.460;2024-02-16T12:46:41;10.07;;;5.40;;
51636;SDS011;37713;53.254;6.460;2024-02-16T12:49:08;10.73;;;5.30;;
51636;SDS011;37713;53.254;6.460;2024-02-16T12:51:34;12.35;;;5.25;;
51636;SDS011;37713;53.254;6.460;2024-02-16T12:54:00;10.45;;;5.60;;
51636;SDS011;37713;53.254;6.460;2024-02-16T12:56:30;9.27;;;5.43;;
51636;SDS011;37713;53.254;6.460;2024-02-16T12:58:56;10.20;;;5.53;;
51636;SDS011;37713;53.254;6.460;2024-02-16T13:01:25;10.77;;;5.13;;
51636;SDS011;37713;53.254;6.460;2024-02-16T13:03:51;9.63;;;5.05;;
51636;SDS011;37713;53.254;6.460;2024-02-16T13:06:17;9.00;;;4.43;;
51636;SDS011;37713;53.254;6.460;2024-02-16T13:08:42;11.93;;;4.55;;
51636;SDS011;37713;53.254;6.460;2024-02-16T13:11:08;8.20;;;3.85;;
51636;SDS011;37713;53.254;6.460;2024-02-16T13:13:34;6.20;;;3.30;;
51636;SDS011;37713;53.254;6.460;2024-02-16T13:16:00;6.55;;;3.47;;
51636;SDS011;37713;53.254;6.460;2024-02-16T13:18:25;5.97;;;3.20;;
51636;SDS011;37713;53.254;6.460;2024-02-16T13:20:52;6.70;;;2.83;;
51636;SDS011;37713;53.254;6.460;2024-02-16T13:23:18;8.25;;;3.10;;
51636;SDS011;37713;53.254;6.460;2024-02-16T13:25:44;5.97;;;2.50;;
51636;SDS011;37713;53.254;6.460;2024-02-16T13:28:10;6.47;;;2.40;;
51636;SDS011;37713;53.254;6.460;2024-02-16T13:30:36;6.88;;;2.60;;
51636;SDS011;37713;53.254;6.460;2024-02-16T13:33:03;6.47;;;2.50;;
51636;SDS011;37713;53.254;6.460;2024-02-16T13:35:29;5.15;;;2.72;;
51636;SDS011;37713;53.254;6.460;2024-02-16T13:37:55;4.93;;;2.40;;
51636;SDS011;37713;53.254;6.460;2024-02-16T13:40:21;5.53;;;2.38;;
51636;SDS011;37713;53.254;6.460;2024-02-16T13:42:47;4.50;;;2.40;;
51636;SDS011;37713;53.254;6.460;2024-02-16T13:45:13;6.05;;;2.58;;
51636;SDS011;37713;53.254;6.460;2024-02-16T13:47:39;6.05;;;3.22;;
51636;SDS011;37713;53.254;6.460;2024-02-16T13:50:08;6.35;;;2.50;;
51636;SDS011;37713;53.254;6.460;2024-02-16T13:52:34;6.60;;;3.20;;
51636;SDS011;37713;53.254;6.460;2024-02-16T13:55:00;7.68;;;3.53;;
51636;SDS011;37713;53.254;6.460;2024-02-16T13:57:27;6.00;;;3.42;;
51636;SDS011;37713;53.254;6.460;2024-02-16T13:59:52;6.32;;;3.45;;
51636;SDS011;37713;53.254;6.460;2024-02-16T14:02:18;7.07;;;3.70;;
51636;SDS011;37713;53.254;6.460;2024-02-16T14:04:44;8.30;;;3.75;;
51636;SDS011;37713;53.254;6.460;2024-02-16T14:07:11;8.55;;;3.70;;
51636;SDS011;37713;53.254;6.460;2024-02-16T14:09:37;7.63;;;3.78;;
51636;SDS011;37713;53.254;6.460;2024-02-16T14:12:03;7.28;;;3.38;;
51636;SDS011;37713;53.254;6.460;2024-02-16T14:14:29;7.88;;;3.72;;
51636;SDS011;37713;53.254;6.460;2024-02-16T14:16:55;8.82;;;4.03;;
51636;SDS011;37713;53.254;6.460;2024-02-16T14:19:22;8.32;;;3.70;;
51636;SDS011;37713;53.254;6.460;2024-02-16T14:21:47;7.20;;;3.72;;
51636;SDS011;37713;53.254;6.460;2024-02-16T14:24:13;6.85;;;3.55;;
51636;SDS011;37713;53.254;6.460;2024-02-16T14:26:39;8.80;;;3.80;;
51636;SDS011;37713;53.254;6.460;2024-02-16T14:29:06;10.20;;;3.50;;
51636;SDS011;37713;53.254;6.460;2024-02-16T14:31:32;10.15;;;3.58;;
51636;SDS011;37713;53.254;6.460;2024-02-16T14:33:58;7.97;;;3.90;;
51636;SDS011;37713;53.254;6.460;2024-02-16T14:36:24;8.00;;;3.47;;
51636;SDS011;37713;53.254;6.460;2024-02-16T14:38:50;8.85;;;3.40;;
51636;SDS011;37713;53.254;6.460;2024-02-16T14:41:16;9.93;;;3.67;;
51636;SDS011;37713;53.254;6.460;2024-02-16T14:43:42;9.27;;;3.70;;
51636;SDS011;37713;53.254;6.460;2024-02-16T14:46:08;10.85;;;3.95;;
51636;SDS011;37713;53.254;6.460;2024-02-16T14:48:35;10.25;;;3.80;;